sensor_id;sensor_type;location;lat;lon;timestamp;pressure;altitude;pressure_sealevel;temperature;humidity
40205;BME280;26963;42.666;23.366;2023-05-10T00:00:34;95201.78;;;10.42;76.59
40205;BME280;26963;42.666;23.366;2023-05-10T00:02:59;95221.16;;;10.53;76.69
40205;BME280;26963;42.666;23.366;2023-05-10T00:05:25;95162.16;;;10.15;75.85
40205;BME280;26963;42.666;23.366;2023-05-10T00:07:50;95183.50;;;10.20;77.20
40205;BME280;26963;42.666;23.366;2023-05-10T00:10:16;95118.72;;;9.75;77.64
40205;BME280;26963;42.666;23.366;2023-05-10T00:12:41;95219.69;;;10.42;76.96
40205;BME280;26963;42.666;23.366;2023-05-10T00:15:08;95138.56;;;9.93;77.34
40205;BME280;26963;42.666;23.366;2023-05-10T00:17:33;95205.81;;;10.35;77.22
40205;BME280;26963;42.666;23.366;2023-05-10T00:19:59;95193.59;;;10.28;76.81
40205;BME280;26963;42.666;23.366;2023-05-10T00:22:25;95212.50;;;10.37;76.44
40205;BME280;26963;42.666;23.366;2023-05-10T00:24:51;95211.72;;;10.32;77.07
40205;BME280;26963;42.666;23.366;2023-05-10T00:27:16;95210.19;;;10.25;76.56
40205;BME280;26963;42.666;23.366;2023-05-10T00:29:42;95180.50;;;9.98;77.86
40205;BME280;26963;42.666;23.366;2023-05-10T00:32:08;95153.78;;;9.98;80.45
40205;BME280;26963;42.666;23.366;2023-05-10T00:34:33;95213.09;;;10.29;78.55
40205;BME280;26963;42.666;23.366;2023-05-10T00:36:59;95186.34;;;10.05;78.39
40205;BME280;26963;42.666;23.366;2023-05-10T00:39:25;95205.97;;;10.19;77.92
40205;BME280;26963;42.666;23.366;2023-05-10T00:41:52;95192.81;;;9.99;77.87
40205;BME280;26963;42.666;23.366;2023-05-10T00:44:17;95135.41;;;9.61;78.78
40205;BME280;26963;42.666;23.366;2023-05-10T00:46:44;95169.44;;;9.80;79.38
40205;BME280;26963;42.666;23.366;2023-05-10T00:49:10;95120.97;;;9.62;79.36
40205;BME280;26963;42.666;23.366;2023-05-10T00:51:36;95144.31;;;9.81;77.99
40205;BME280;26963;42.666;23.366;2023-05-10T00:54:02;95203.06;;;10.16;77.90
40205;BME280;26963;42.666;23.366;2023-05-10T00:56:28;95197.94;;;10.19;78.55
40205;BME280;26963;42.666;23.366;2023-05-10T00:58:55;95189.50;;;10.07;77.80
40205;BME280;26963;42.666;23.366;2023-05-10T01:01:22;95203.28;;;10.19;76.87
40205;BME280;26963;42.666;23.366;2023-05-10T01:03:48;95146.94;;;9.86;76.78
40205;BME280;26963;42.666;23.366;2023-05-10T01:06:13;95214.56;;;10.16;77.41
40205;BME280;26963;42.666;23.366;2023-05-10T01:08:39;95129.94;;;9.77;78.44
40205;BME280;26963;42.666;23.366;2023-05-10T01:11:06;95171.78;;;10.16;77.77
40205;BME280;26963;42.666;23.366;2023-05-10T01:13:36;95190.91;;;10.28;77.21
40205;BME280;26963;42.666;23.366;2023-05-10T01:16:03;95168.03;;;10.17;76.04
40205;BME280;26963;42.666;23.366;2023-05-10T01:18:33;95172.81;;;10.20;75.04
40205;BME280;26963;42.666;23.366;2023-05-10T01:37:49;95183.56;;;10.15;73.83
40205;BME280;26963;42.666;23.366;2023-05-10T01:40:18;95182.78;;;10.09;75.21
40205;BME280;26963;42.666;23.366;2023-05-10T01:42:52;95189.97;;;10.14;75.74
40205;BME280;26963;42.666;23.366;2023-05-10T01:45:30;95114.53;;;9.63;76.96
40205;BME280;26963;42.666;23.366;2023-05-10T01:48:06;95171.47;;;9.93;74.89
40205;BME280;26963;42.666;23.366;2023-05-10T01:50:36;95180.09;;;9.85;77.04
40205;BME280;26963;42.666;23.366;2023-05-10T01:53:05;95168.94;;;9.78;76.62
40205;BME280;26963;42.666;23.366;2023-05-10T01:55:35;95154.06;;;9.67;75.87
40205;BME280;26963;42.666;23.366;2023-05-10T01:58:10;95117.66;;;9.46;76.51
40205;BME280;26963;42.666;23.366;2023-05-10T02:00:40;95165.22;;;9.74;77.76
40205;BME280;26963;42.666;23.366;2023-05-10T02:03:08;95167.16;;;9.68;76.19
40205;BME280;26963;42.666;23.366;2023-05-10T02:05:35;95022.09;;;8.74;73.78
40205;BME280;26963;42.666;23.366;2023-05-10T02:08:03;95138.53;;;9.39;73.68
40205;BME280;26963;42.666;23.366;2023-05-10T02:10:32;95165.72;;;9.46;73.59
40205;BME280;26963;42.666;23.366;2023-05-10T02:12:59;95182.03;;;9.45;75.17
40205;BME280;26963;42.666;23.366;2023-05-10T02:15:26;95181.28;;;9.34;72.22
40205;BME280;26963;42.666;23.366;2023-05-10T02:17:54;95181.84;;;9.31;71.36
40205;BME280;26963;42.666;23.366;2023-05-10T02:20:20;95187.03;;;9.12;71.25
40205;BME280;26963;42.666;23.366;2023-05-10T02:22:49;95124.59;;;8.63;71.49
40205;BME280;26963;42.666;23.366;2023-05-10T02:25:18;95187.69;;;8.88;71.26
40205;BME280;26963;42.666;23.366;2023-05-10T02:27:46;95182.88;;;8.90;71.13
40205;BME280;26963;42.666;23.366;2023-05-10T02:30:13;95187.69;;;8.93;72.07
40205;BME280;26963;42.666;23.366;2023-05-10T02:32:40;95162.19;;;8.67;69.82
40205;BME280;26963;42.666;23.366;2023-05-10T02:35:07;95197.63;;;8.77;69.07
40205;BME280;26963;42.666;23.366;2023-05-10T02:37:34;95135.63;;;8.30;68.52
40205;BME280;26963;42.666;23.366;2023-05-10T02:40:01;95196.88;;;8.67;70.13
40205;BME280;26963;42.666;23.366;2023-05-10T02:42:29;95178.22;;;8.56;69.43
40205;BME280;26963;42.666;23.366;2023-05-10T02:45:00;95189.44;;;8.58;68.79
40205;BME280;26963;42.666;23.366;2023-05-10T02:47:30;95185.72;;;8.49;66.67
40205;BME280;26963;42.666;23.366;2023-05-10T02:49:56;95174.53;;;8.42;68.74
40205;BME280;26963;42.666;23.366;2023-05-10T02:52:28;95184.41;;;8.36;68.70
40205;BME280;26963;42.666;23.366;2023-05-10T02:54:59;95155.94;;;8.16;68.89
40205;BME280;26963;42.666;23.366;2023-05-10T02:57:32;95167.94;;;8.13;69.34
40205;BME280;26963;42.666;23.366;2023-05-10T02:59:59;95168.97;;;8.23;69.01
40205;BME280;26963;42.666;23.366;2023-05-10T03:02:26;95176.97;;;8.23;69.65
40205;BME280;26963;42.666;23.366;2023-05-10T03:04:51;95110.72;;;7.80;68.29
40205;BME280;26963;42.666;23.366;2023-05-10T03:07:17;95175.63;;;8.25;68.99
40205;BME280;26963;42.666;23.366;2023-05-10T03:09:47;95190.84;;;8.25;68.17
40205;BME280;26963;42.666;23.366;2023-05-10T03:20:12;95123.72;;;8.07;68.62
40205;BME280;26963;42.666;23.366;2023-05-10T03:22:46;95182.53;;;8.47;68.53
40205;BME280;26963;42.666;23.366;2023-05-10T03:25:15;95177.47;;;8.40;66.96
40205;BME280;26963;42.666;23.366;2023-05-10T03:27:43;95184.38;;;8.57;67.50
40205;BME280;26963;42.666;23.366;2023-05-10T03:30:13;95153.19;;;8.42;67.45
40205;BME280;26963;42.666;23.366;2023-05-10T03:32:39;95177.16;;;8.57;67.18
40205;BME280;26963;42.666;23.366;2023-05-10T03:35:09;95193.31;;;8.81;67.32
40205;BME280;26963;42.666;23.366;2023-05-10T03:37:34;95193.56;;;8.85;68.18
40205;BME280;26963;42.666;23.366;2023-05-10T03:40:01;95178.13;;;8.82;68.45
40205;BME280;26963;42.666;23.366;2023-05-10T03:42:26;95189.25;;;9.00;68.15
40205;BME280;26963;42.666;23.366;2023-05-10T03:44:53;95157.88;;;8.76;67.07
40205;BME280;26963;42.666;23.366;2023-05-10T03:47:18;95195.63;;;9.04;67.15
40205;BME280;26963;42.666;23.366;2023-05-10T03:49:44;95163.13;;;8.91;66.23
40205;BME280;26963;42.666;23.366;2023-05-10T03:52:09;95127.28;;;8.63;65.65
40205;BME280;26963;42.666;23.366;2023-05-10T03:54:35;95173.31;;;8.79;65.88
40205;BME280;26963;42.666;23.366;2023-05-10T03:57:00;95197.03;;;8.91;66.31
40205;BME280;26963;42.666;23.366;2023-05-10T03:59:26;95186.06;;;8.92;65.80
40205;BME280;26963;42.666;23.366;2023-05-10T04:01:52;95191.09;;;8.99;66.75
40205;BME280;26963;42.666;23.366;2023-05-10T04:04:17;95147.03;;;8.57;65.16
40205;BME280;26963;42.666;23.366;2023-05-10T04:06:44;95203.97;;;8.92;65.19
40205;BME280;26963;42.666;23.366;2023-05-10T04:09:10;95195.44;;;8.90;65.30
40205;BME280;26963;42.666;23.366;2023-05-10T04:11:36;95202.84;;;8.98;65.33
40205;BME280;26963;42.666;23.366;2023-05-10T04:14:01;95210.34;;;8.96;64.72
40205;BME280;26963;42.666;23.366;2023-05-10T04:16:30;95159.03;;;8.54;65.35
40205;BME280;26963;42.666;23.366;2023-05-10T04:18:55;95212.22;;;8.90;65.62
40205;BME280;26963;42.666;23.366;2023-05-10T04:21:21;95177.59;;;8.80;66.24
40205;BME280;26963;42.666;23.366;2023-05-10T04:23:47;95198.88;;;8.90;66.06
40205;BME280;26963;42.666;23.366;2023-05-10T04:26:13;95183.66;;;8.96;66.60
40205;BME280;26963;42.666;23.366;2023-05-10T04:28:38;95216.41;;;9.07;65.35
40205;BME280;26963;42.666;23.366;2023-05-10T04:31:05;95207.34;;;9.08;65.45
40205;BME280;26963;42.666;23.366;2023-05-10T04:33:32;95213.19;;;9.15;65.49
40205;BME280;26963;42.666;23.366;2023-05-10T04:35:58;95189.25;;;9.00;64.87
40205;BME280;26963;42.666;23.366;2023-05-10T04:38:24;95128.31;;;8.67;65.96
40205;BME280;26963;42.666;23.366;2023-05-10T04:40:49;95170.63;;;8.84;66.05
40205;BME280;26963;42.666;23.366;2023-05-10T04:43:15;95111.06;;;8.49;66.07
40205;BME280;26963;42.666;23.366;2023-05-10T04:45:41;95189.31;;;8.89;66.59
40205;BME280;26963;42.666;23.366;2023-05-10T04:48:06;95222.00;;;9.10;65.80
40205;BME280;26963;42.666;23.366;2023-05-10T04:50:32;95212.16;;;9.11;66.21
40205;BME280;26963;42.666;23.366;2023-05-10T04:52:58;95215.28;;;9.18;65.79
40205;BME280;26963;42.666;23.366;2023-05-10T04:55:24;95183.91;;;9.00;65.62
40205;BME280;26963;42.666;23.366;2023-05-10T04:57:50;95223.88;;;9.10;65.80
40205;BME280;26963;42.666;23.366;2023-05-10T05:00:16;95194.03;;;9.03;66.01
40205;BME280;26963;42.666;23.366;2023-05-10T05:02:42;95183.09;;;8.99;66.61
40205;BME280;26963;42.666;23.366;2023-05-10T05:05:09;95162.94;;;8.77;66.08
40205;BME280;26963;42.666;23.366;2023-05-10T05:07:35;95215.81;;;9.20;66.13
40205;BME280;26963;42.666;23.366;2023-05-10T05:10:01;95199.47;;;9.27;65.85
40205;BME280;26963;42.666;23.366;2023-05-10T05:12:26;95101.44;;;8.53;65.49
40205;BME280;26963;42.666;23.366;2023-05-10T05:14:52;95212.09;;;9.21;65.02
40205;BME280;26963;42.666;23.366;2023-05-10T05:17:17;95230.16;;;9.29;65.96
40205;BME280;26963;42.666;23.366;2023-05-10T05:19:43;95055.97;;;8.24;65.92
40205;BME280;26963;42.666;23.366;2023-05-10T05:22:08;95210.91;;;9.38;65.68
40205;BME280;26963;42.666;23.366;2023-05-10T05:24:37;95224.28;;;9.33;65.32
40205;BME280;26963;42.666;23.366;2023-05-10T05:27:03;95223.19;;;9.39;65.47
40205;BME280;26963;42.666;23.366;2023-05-10T05:29:29;95223.66;;;9.46;66.29
40205;BME280;26963;42.666;23.366;2023-05-10T05:31:55;95202.50;;;9.15;65.71
40205;BME280;26963;42.666;23.366;2023-05-10T05:34:21;95228.47;;;9.49;66.18
40205;BME280;26963;42.666;23.366;2023-05-10T05:36:47;95142.34;;;8.88;67.58
40205;BME280;26963;42.666;23.366;2023-05-10T05:39:13;95244.78;;;9.48;66.64
40205;BME280;26963;42.666;23.366;2023-05-10T05:41:38;95208.03;;;9.29;66.17
40205;BME280;26963;42.666;23.366;2023-05-10T05:44:04;95221.06;;;9.36;65.78
40205;BME280;26963;42.666;23.366;2023-05-10T05:46:30;95200.41;;;9.07;66.51
40205;BME280;26963;42.666;23.366;2023-05-10T05:48:55;95240.84;;;9.29;66.44
40205;BME280;26963;42.666;23.366;2023-05-10T05:51:21;95235.06;;;9.17;67.08
40205;BME280;26963;42.666;23.366;2023-05-10T05:53:49;95210.84;;;9.03;67.23
40205;BME280;26963;42.666;23.366;2023-05-10T05:56:15;95200.41;;;9.07;68.40
40205;BME280;26963;42.666;23.366;2023-05-10T05:58:40;95209.00;;;8.98;68.13
40205;BME280;26963;42.666;23.366;2023-05-10T06:01:06;95235.75;;;9.33;68.42
40205;BME280;26963;42.666;23.366;2023-05-10T06:03:32;95248.28;;;9.38;67.81
40205;BME280;26963;42.666;23.366;2023-05-10T06:05:58;95243.50;;;9.35;67.91
40205;BME280;26963;42.666;23.366;2023-05-10T06:08:23;95257.34;;;9.42;68.42
40205;BME280;26963;42.666;23.366;2023-05-10T06:10:49;95238.44;;;9.33;67.79
40205;BME280;26963;42.666;23.366;2023-05-10T06:13:14;95245.03;;;9.46;67.80
40205;BME280;26963;42.666;23.366;2023-05-10T06:15:40;95214.16;;;9.29;67.49
40205;BME280;26963;42.666;23.366;2023-05-10T06:18:06;95246.59;;;9.52;66.99
40205;BME280;26963;42.666;23.366;2023-05-10T06:20:31;95241.53;;;9.51;67.25
40205;BME280;26963;42.666;23.366;2023-05-10T06:23:00;95249.22;;;9.57;67.54
40205;BME280;26963;42.666;23.366;2023-05-10T06:25:25;95227.75;;;9.33;66.83
40205;BME280;26963;42.666;23.366;2023-05-10T06:27:51;95235.97;;;9.42;66.67
40205;BME280;26963;42.666;23.366;2023-05-10T06:30:23;95251.44;;;9.50;65.74
40205;BME280;26963;42.666;23.366;2023-05-10T06:32:55;95254.13;;;9.45;65.95
40205;BME280;26963;42.666;23.366;2023-05-10T06:35:21;95201.00;;;8.98;65.94
40205;BME280;26963;42.666;23.366;2023-05-10T06:37:46;95250.94;;;9.43;66.37
40205;BME280;26963;42.666;23.366;2023-05-10T06:40:12;95247.16;;;9.49;66.22
40205;BME280;26963;42.666;23.366;2023-05-10T06:42:37;95252.41;;;9.65;65.81
40205;BME280;26963;42.666;23.366;2023-05-10T06:45:03;95196.84;;;9.22;65.62
40205;BME280;26963;42.666;23.366;2023-05-10T06:47:29;95240.69;;;9.60;65.17
40205;BME280;26963;42.666;23.366;2023-05-10T06:49:54;95245.78;;;9.57;66.13
40205;BME280;26963;42.666;23.366;2023-05-10T06:52:20;95259.13;;;9.57;65.63
40205;BME280;26963;42.666;23.366;2023-05-10T06:54:46;95221.03;;;9.41;64.91
40205;BME280;26963;42.666;23.366;2023-05-10T06:57:11;95254.00;;;9.66;63.87
40205;BME280;26963;42.666;23.366;2023-05-10T06:59:37;95249.75;;;9.59;64.90
40205;BME280;26963;42.666;23.366;2023-05-10T07:02:03;95230.91;;;9.40;63.57
40205;BME280;26963;42.666;23.366;2023-05-10T07:04:28;95262.03;;;9.60;64.76
40205;BME280;26963;42.666;23.366;2023-05-10T07:06:54;95221.16;;;9.20;63.51
40205;BME280;26963;42.666;23.366;2023-05-10T07:09:19;95262.16;;;9.40;62.37
40205;BME280;26963;42.666;23.366;2023-05-10T07:11:45;95251.53;;;9.29;61.02
40205;BME280;26963;42.666;23.366;2023-05-10T07:14:11;95271.28;;;9.34;64.21
40205;BME280;26963;42.666;23.366;2023-05-10T07:16:37;95215.97;;;8.84;64.12
40205;BME280;26963;42.666;23.366;2023-05-10T07:19:02;95269.22;;;9.20;63.74
40205;BME280;26963;42.666;23.366;2023-05-10T07:21:31;95267.63;;;9.14;63.89
40205;BME280;26963;42.666;23.366;2023-05-10T07:24:00;95279.63;;;9.17;64.28
40205;BME280;26963;42.666;23.366;2023-05-10T07:26:26;95236.00;;;8.92;63.63
40205;BME280;26963;42.666;23.366;2023-05-10T07:28:51;95219.47;;;8.85;63.72
40205;BME280;26963;42.666;23.366;2023-05-10T07:31:17;95250.03;;;9.13;63.60
40205;BME280;26963;42.666;23.366;2023-05-10T07:33:42;95255.91;;;9.15;63.07
40205;BME280;26963;42.666;23.366;2023-05-10T07:36:08;95272.44;;;9.12;63.27
40205;BME280;26963;42.666;23.366;2023-05-10T07:38:33;95141.31;;;8.13;64.03
40205;BME280;26963;42.666;23.366;2023-05-10T07:40:59;95254.38;;;8.98;64.61
40205;BME280;26963;42.666;23.366;2023-05-10T07:43:24;95280.41;;;9.27;63.96
40205;BME280;26963;42.666;23.366;2023-05-10T07:45:50;95261.75;;;9.22;64.83
40205;BME280;26963;42.666;23.366;2023-05-10T07:48:15;95247.09;;;9.09;63.08
40205;BME280;26963;42.666;23.366;2023-05-10T07:50:41;95252.69;;;9.13;63.56
40205;BME280;26963;42.666;23.366;2023-05-10T07:53:06;95291.34;;;9.31;64.93
40205;BME280;26963;42.666;23.366;2023-05-10T07:55:33;95202.66;;;8.89;64.50
40205;BME280;26963;42.666;23.366;2023-05-10T07:57:58;95289.94;;;9.44;63.75
40205;BME280;26963;42.666;23.366;2023-05-10T08:00:26;95289.88;;;9.54;62.71
40205;BME280;26963;42.666;23.366;2023-05-10T08:02:51;95249.72;;;9.25;62.53
40205;BME280;26963;42.666;23.366;2023-05-10T08:05:18;95261.91;;;9.41;62.33
40205;BME280;26963;42.666;23.366;2023-05-10T08:07:43;95273.63;;;9.45;62.34
40205;BME280;26963;42.666;23.366;2023-05-10T08:10:09;95276.50;;;9.54;62.51
40205;BME280;26963;42.666;23.366;2023-05-10T08:12:36;95263.16;;;9.54;61.39
40205;BME280;26963;42.666;23.366;2023-05-10T08:15:02;95273.81;;;9.59;60.94
40205;BME280;26963;42.666;23.366;2023-05-10T08:17:28;95246.38;;;9.43;60.90
40205;BME280;26963;42.666;23.366;2023-05-10T08:19:54;95285.03;;;9.61;62.38
40205;BME280;26963;42.666;23.366;2023-05-10T08:22:19;95288.69;;;9.71;61.77
40205;BME280;26963;42.666;23.366;2023-05-10T08:24:45;95303.13;;;9.70;61.56
40205;BME280;26963;42.666;23.366;2023-05-10T08:27:10;95282.84;;;9.63;62.58
40205;BME280;26963;42.666;23.366;2023-05-10T08:29:37;95153.59;;;8.80;62.11
40205;BME280;26963;42.666;23.366;2023-05-10T08:32:03;95269.72;;;9.72;61.62
40205;BME280;26963;42.666;23.366;2023-05-10T08:34:29;95295.59;;;9.77;61.20
40205;BME280;26963;42.666;23.366;2023-05-10T08:37:01;95287.59;;;9.77;62.17
40205;BME280;26963;42.666;23.366;2023-05-10T08:39:34;95203.53;;;9.19;62.44
40205;BME280;26963;42.666;23.366;2023-05-10T08:42:08;95210.44;;;9.25;62.99
40205;BME280;26963;42.666;23.366;2023-05-10T08:44:36;95299.81;;;9.88;63.15
40205;BME280;26963;42.666;23.366;2023-05-10T08:47:06;95287.38;;;9.68;63.87
40205;BME280;26963;42.666;23.366;2023-05-10T08:49:32;95286.03;;;9.71;64.72
40205;BME280;26963;42.666;23.366;2023-05-10T08:52:02;95282.59;;;9.60;63.52
40205;BME280;26963;42.666;23.366;2023-05-10T08:54:31;95284.69;;;9.68;64.80
40205;BME280;26963;42.666;23.366;2023-05-10T08:56:56;95287.16;;;9.59;65.63
40205;BME280;26963;42.666;23.366;2023-05-10T08:59:22;95288.69;;;9.71;66.36
40205;BME280;26963;42.666;23.366;2023-05-10T09:01:48;95256.69;;;9.60;64.65
40205;BME280;26963;42.666;23.366;2023-05-10T09:04:14;95279.53;;;9.82;64.95
40205;BME280;26963;42.666;23.366;2023-05-10T09:06:40;95318.97;;;10.01;64.41
40205;BME280;26963;42.666;23.366;2023-05-10T09:09:06;95291.81;;;9.83;64.50
40205;BME280;26963;42.666;23.366;2023-05-10T09:11:32;95282.69;;;9.84;64.61
40205;BME280;26963;42.666;23.366;2023-05-10T09:14:04;95242.75;;;9.69;63.10
40205;BME280;26963;42.666;23.366;2023-05-10T09:16:35;95112.06;;;8.63;63.87
40205;BME280;26963;42.666;23.366;2023-05-10T09:19:01;95272.00;;;9.84;64.95
40205;BME280;26963;42.666;23.366;2023-05-10T09:21:31;95297.00;;;10.04;65.22
40205;BME280;26963;42.666;23.366;2023-05-10T09:23:56;95289.28;;;10.02;65.90
40205;BME280;26963;42.666;23.366;2023-05-10T09:26:23;95171.06;;;9.46;64.95
40205;BME280;26963;42.666;23.366;2023-05-10T09:28:56;95283.75;;;10.23;64.75
40205;BME280;26963;42.666;23.366;2023-05-10T09:31:24;95216.19;;;9.83;63.50
40205;BME280;26963;42.666;23.366;2023-05-10T09:33:52;95266.97;;;10.12;63.96
40205;BME280;26963;42.666;23.366;2023-05-10T09:36:18;95274.66;;;10.24;63.74
40205;BME280;26963;42.666;23.366;2023-05-10T09:38:51;95118.31;;;9.28;65.19
40205;BME280;26963;42.666;23.366;2023-05-10T09:41:18;95244.03;;;10.11;65.00
40205;BME280;26963;42.666;23.366;2023-05-10T09:43:44;95263.97;;;10.24;63.06
40205;BME280;26963;42.666;23.366;2023-05-10T09:46:12;95276.50;;;10.28;62.11
40205;BME280;26963;42.666;23.366;2023-05-10T09:48:42;95271.78;;;10.15;63.57
40205;BME280;26963;42.666;23.366;2023-05-10T09:51:09;95247.88;;;10.00;61.95
40205;BME280;26963;42.666;23.366;2023-05-10T09:53:35;95249.38;;;10.11;63.32
40205;BME280;26963;42.666;23.366;2023-05-10T09:56:01;95265.09;;;10.18;63.29
40205;BME280;26963;42.666;23.366;2023-05-10T09:58:26;95280.84;;;10.19;64.68
40205;BME280;26963;42.666;23.366;2023-05-10T10:00:52;95212.69;;;9.87;64.12
40205;BME280;26963;42.666;23.366;2023-05-10T10:03:22;95256.44;;;10.26;63.40
40205;BME280;26963;42.666;23.366;2023-05-10T10:05:48;95277.44;;;10.43;62.56
40205;BME280;26963;42.666;23.366;2023-05-10T10:08:15;95266.28;;;10.36;62.31
40205;BME280;26963;42.666;23.366;2023-05-10T10:10:41;95262.66;;;10.21;63.24
40205;BME280;26963;42.666;23.366;2023-05-10T10:13:07;95237.31;;;10.14;62.95
40205;BME280;26963;42.666;23.366;2023-05-10T10:15:34;95265.56;;;10.25;62.70
40205;BME280;26963;42.666;23.366;2023-05-10T10:18:00;95247.56;;;10.31;62.57
40205;BME280;26963;42.666;23.366;2023-05-10T10:20:26;95247.50;;;10.41;63.18
40205;BME280;26963;42.666;23.366;2023-05-10T10:22:52;95239.16;;;10.48;63.86
40205;BME280;26963;42.666;23.366;2023-05-10T10:25:19;95248.38;;;10.60;63.48
40205;BME280;26963;42.666;23.366;2023-05-10T10:28:10;95205.41;;;10.52;62.46
40205;BME280;26963;42.666;23.366;2023-05-10T10:35:31;95252.47;;;11.01;62.13
40205;BME280;26963;42.666;23.366;2023-05-10T10:38:01;95227.88;;;10.75;61.27
40205;BME280;26963;42.666;23.366;2023-05-10T10:40:31;95239.78;;;10.88;60.79
40205;BME280;26963;42.666;23.366;2023-05-10T10:45:41;95245.59;;;10.95;60.42
40205;BME280;26963;42.666;23.366;2023-05-10T10:48:30;95264.69;;;10.88;60.44
40205;BME280;26963;42.666;23.366;2023-05-10T10:50:56;95257.72;;;10.87;60.40
40205;BME280;26963;42.666;23.366;2023-05-10T10:53:26;95246.72;;;10.65;60.24
40205;BME280;26963;42.666;23.366;2023-05-10T10:56:09;95184.53;;;10.24;60.63
40205;BME280;26963;42.666;23.366;2023-05-10T10:58:37;95256.06;;;10.91;60.32
40205;BME280;26963;42.666;23.366;2023-05-10T11:01:17;95260.94;;;10.84;60.24
40205;BME280;26963;42.666;23.366;2023-05-10T11:06:34;95262.44;;;10.96;60.20
40205;BME280;26963;42.666;23.366;2023-05-10T11:09:08;95238.47;;;10.85;59.96
40205;BME280;26963;42.666;23.366;2023-05-10T11:11:35;95236.81;;;10.89;60.22
40205;BME280;26963;42.666;23.366;2023-05-10T11:14:05;95234.66;;;10.91;60.51
40205;BME280;26963;42.666;23.366;2023-05-10T11:16:44;95233.63;;;10.87;60.85
40205;BME280;26963;42.666;23.366;2023-05-10T11:19:11;95258.13;;;11.00;60.14
40205;BME280;26963;42.666;23.366;2023-05-10T11:22:12;95251.72;;;10.96;60.53
40205;BME280;26963;42.666;23.366;2023-05-10T11:24:36;95263.47;;;11.00;60.35
40205;BME280;26963;42.666;23.366;2023-05-10T11:27:02;95253.38;;;10.91;60.47
40205;BME280;26963;42.666;23.366;2023-05-10T11:29:28;95220.75;;;10.65;60.70
40205;BME280;26963;42.666;23.366;2023-05-10T11:31:57;95270.75;;;10.94;60.59
40205;BME280;26963;42.666;23.366;2023-05-10T11:34:30;95228.28;;;10.87;61.14
40205;BME280;26963;42.666;23.366;2023-05-10T11:36:59;95259.00;;;11.14;60.39
40205;BME280;26963;42.666;23.366;2023-05-10T11:39:27;95249.09;;;10.90;60.82
40205;BME280;26963;42.666;23.366;2023-05-10T11:41:53;95215.88;;;10.72;60.34
40205;BME280;26963;42.666;23.366;2023-05-10T11:44:19;95263.91;;;11.07;59.94
40205;BME280;26963;42.666;23.366;2023-05-10T11:46:45;95259.34;;;11.07;59.85
40205;BME280;26963;42.666;23.366;2023-05-10T11:49:11;95232.25;;;10.90;60.63
40205;BME280;26963;42.666;23.366;2023-05-10T11:51:38;95258.53;;;11.07;61.28
40205;BME280;26963;42.666;23.366;2023-05-10T11:54:10;95267.16;;;11.04;60.96
40205;BME280;26963;42.666;23.366;2023-05-10T11:56:37;95222.03;;;10.73;61.30
40205;BME280;26963;42.666;23.366;2023-05-10T11:59:03;95241.72;;;10.82;61.13
40205;BME280;26963;42.666;23.366;2023-05-10T12:01:30;95232.09;;;10.81;61.75
40205;BME280;26963;42.666;23.366;2023-05-10T12:03:57;95256.88;;;10.92;61.39
40205;BME280;26963;42.666;23.366;2023-05-10T12:06:27;95243.88;;;10.80;61.44
40205;BME280;26963;42.666;23.366;2023-05-10T12:08:54;95239.34;;;10.81;61.86
40205;BME280;26963;42.666;23.366;2023-05-10T12:11:20;95243.75;;;10.90;61.71
40205;BME280;26963;42.666;23.366;2023-05-10T12:13:47;95209.28;;;10.65;61.44
40205;BME280;26963;42.666;23.366;2023-05-10T12:16:16;95239.44;;;10.95;61.27
40205;BME280;26963;42.666;23.366;2023-05-10T12:18:42;95245.22;;;11.02;61.31
40205;BME280;26963;42.666;23.366;2023-05-10T12:21:12;95216.19;;;10.90;61.02
40205;BME280;26963;42.666;23.366;2023-05-10T12:23:39;95234.03;;;11.19;61.75
40205;BME280;26963;42.666;23.366;2023-05-10T12:26:05;95230.16;;;11.30;60.33
40205;BME280;26963;42.666;23.366;2023-05-10T12:28:32;95237.28;;;11.35;59.88
40205;BME280;26963;42.666;23.366;2023-05-10T12:30:59;95176.34;;;10.88;60.10
40205;BME280;26963;42.666;23.366;2023-05-10T12:33:25;95223.97;;;11.30;60.17
40205;BME280;26963;42.666;23.366;2023-05-10T12:35:53;95170.03;;;10.98;59.91
40205;BME280;26963;42.666;23.366;2023-05-10T12:38:29;95230.47;;;11.23;60.05
40205;BME280;26963;42.666;23.366;2023-05-10T12:41:01;95220.22;;;11.31;59.93
40205;BME280;26963;42.666;23.366;2023-05-10T12:43:30;95230.16;;;11.30;59.96
40205;BME280;26963;42.666;23.366;2023-05-10T12:45:56;95226.16;;;11.28;59.96
40205;BME280;26963;42.666;23.366;2023-05-10T12:48:22;95196.47;;;11.05;60.15
40205;BME280;26963;42.666;23.366;2023-05-10T12:50:48;95112.50;;;10.57;60.12
40205;BME280;26963;42.666;23.366;2023-05-10T12:53:14;95146.50;;;10.76;60.29
40205;BME280;26963;42.666;23.366;2023-05-10T12:55:41;95201.47;;;11.12;60.18
40205;BME280;26963;42.666;23.366;2023-05-10T12:58:07;95145.22;;;10.73;59.95
40205;BME280;26963;42.666;23.366;2023-05-10T13:00:32;95193.88;;;11.00;60.60
40205;BME280;26963;42.666;23.366;2023-05-10T13:02:58;95200.69;;;11.11;60.09
40205;BME280;26963;42.666;23.366;2023-05-10T13:05:24;95149.78;;;10.73;60.84
40205;BME280;26963;42.666;23.366;2023-05-10T13:07:49;95184.22;;;10.99;60.24
40205;BME280;26963;42.666;23.366;2023-05-10T13:10:15;95167.22;;;10.89;60.79
40205;BME280;26963;42.666;23.366;2023-05-10T13:12:41;95144.13;;;10.74;61.10
40205;BME280;26963;42.666;23.366;2023-05-10T13:15:07;95115.47;;;10.56;61.04
40205;BME280;26963;42.666;23.366;2023-05-10T13:17:33;95152.88;;;10.80;60.91
40205;BME280;26963;42.666;23.366;2023-05-10T13:19:58;95093.28;;;10.55;60.25
40205;BME280;26963;42.666;23.366;2023-05-10T13:22:24;95151.66;;;10.91;60.92
40205;BME280;26963;42.666;23.366;2023-05-10T13:24:49;95184.84;;;11.15;60.50
40205;BME280;26963;42.666;23.366;2023-05-10T13:27:15;95188.81;;;11.17;60.75
40205;BME280;26963;42.666;23.366;2023-05-10T13:29:40;95170.47;;;11.05;60.85